EGGDEYKA

Guest
Details From EGGD - Bristol International
To EYKA - Kaunas Intl
Flight Number -
Tags decoded
Created
Modified
Stats Distance 982 nm / 1,819 km
Max Altitude 0 ft / 0 m
Waypoints 2
Social Downloads 0
Likes 0
Share VATSIM

Download

Looking for another format? Having issues loading an existing format? Contact us
Advertisement - Login to hide

Notes

Requested: EGGD EYKA

Route

EGGD EYKA

ID Type Via Altitude Latitude Longitude Leg Dist Tot Dist Heading (true) Name
O EGGD APT - 0 ft / 0 m 51.38266˚ -2.71892˚ - 0 nm - Bristol International
O EYKA APT - 0 ft / 0 m 54.96388˚ 24.08400˚ 982 nm 982 nm 67° / 88° Kaunas Intl

Altitude Profile

Advertisement - Login to hide

Weather


0- 5 10 15 20 25 30 35+ Temperature / ° C

Clouds and Precipitation
Forecast for 2017-12-12 12:00 UTC. Updated an hour ago

Ground ~20,000 ft ~40,000 ft Winds

EGGD

Details ICAO EGGD (BRS)
Name Bristol International
Region United Kingdom
Timezone Europe/London (UTC+0.0)
Stats Elevation 622 ft / 190 m (AMSL)
Location 51.382658° -2.718918°
Runways 1
Magnetic Variation 1.351° W

METAR

EGGD 121220Z AUTO 21005KT 9999 NCD 03/02 Q1008

Decode

TAF

TAF TAF EGGD 121110Z 1212/1312 19008KT 9999 FEW030 BECMG 1218/1221 5000 -RA BKN009 TEMPO 1219/1223 20018G28KT 3000 RADZ BKN004 PROB30 TEMPO 1220/1223 1400 RADZ BKN001 BECMG 1222/1301 25010KT 9999 NSW SCT009 PROB30 TEMPO 1223/1303 27015G25KT TEMPO 1305/1312 5000 SHRA BKN009 PROB30 TEMPO 1306/1312 2000 +SHRA BKN004 BECMG 1308/1311 26018G28KT

Decode

Departure Runways

ID Width Length Bearing (true) Bearing (mag) Surface Threshold Offset Overrun Length
09 148 ft / 45 m 6,655 ft / 2,029 m 86.42° 87.77° Asphalt 0 ft / 0 m 0 ft / 0 m
27 148 ft / 45 m 6,655 ft / 2,029 m 266.44° 267.79° Asphalt 499 ft / 152 m 0 ft / 0 m

EYKA

Details ICAO EYKA (KUN)
Name Kaunas Intl
Region Lithuania
Timezone Europe/Vilnius (UTC+2.0)
Stats Elevation 256 ft / 78 m (AMSL)
Location 54.963881° 24.084001°
Runways 1
Magnetic Variation 7.208° E

METAR

EYKA 121220Z 20009KT 160V220 9999 OVC041 08/03 Q0994 R08/29//95

Decode

TAF

TAF TAF EYKA 121110Z 1212/1312 18014G24KT 9000 OVC035 TEMPO 1214/1217 BKN015 BECMG 1217/1219 24018KT TEMPO 1219/1301 24018G34KT BECMG 1305/1307 24008KT BKN015

Decode

Destination Runways

ID Width Length Bearing (true) Bearing (mag) Surface Threshold Offset Overrun Length
08 148 ft / 45 m 10,309 ft / 3,142 m 85.05° 77.84° Asphalt 1,116 ft / 340 m 240 ft / 73 m
26 148 ft / 45 m 10,309 ft / 3,142 m 265.09° 257.88° Asphalt 789 ft / 240 m 240 ft / 73 m

Approach Navaids

Runway Type Ident Frequency Range Bearing (true) Bearing (mag) Slope Elevation
08 Localiser IKM 109.50 MHz 18 nm / 33 km 85.09° 77.89° - 256 ft / 78 m (AMSL)
08 Glidescope IKM 109.50 MHz 10 nm / 19 km 85.07° 77.86° 3.00° 256 ft / 78 m (AMSL)
26 Localiser ISE 109.90 MHz 18 nm / 33 km 265.04° 257.84° - 256 ft / 78 m (AMSL)
26 Glidescope ISE 109.90 MHz 10 nm / 19 km 265.07° 257.86° 3.00° 256 ft / 78 m (AMSL)

Popular Alternatives